createdAt,value
2022-08-05T00:00:26.130Z,59.30
2022-08-05T00:02:54.796Z,59.30
2022-08-05T00:06:01.720Z,59.40
2022-08-05T00:08:35.163Z,59.40
2022-08-05T00:11:01.690Z,59.50
2022-08-05T00:13:39.575Z,59.50
2022-08-05T00:16:10.925Z,59.60
2022-08-05T00:18:42.418Z,59.50
2022-08-05T00:21:14.565Z,59.50
2022-08-05T00:23:45.973Z,59.50
2022-08-05T00:26:17.936Z,59.60
2022-08-05T00:28:49.276Z,59.60
2022-08-05T00:31:41.495Z,59.60
2022-08-05T00:34:56.489Z,59.70
2022-08-05T00:37:10.519Z,59.70
2022-08-05T00:39:57.100Z,59.80
2022-08-05T00:42:33.238Z,59.90
2022-08-05T00:45:03.860Z,59.90
2022-08-05T00:47:56.601Z,59.90
2022-08-05T00:50:20.875Z,59.90
2022-08-05T00:52:49.509Z,60.10
2022-08-05T00:55:18.915Z,60.20
2022-08-05T00:57:55.508Z,60.40
2022-08-05T01:00:29.331Z,60.30
2022-08-05T01:02:59.852Z,60.30
2022-08-05T01:05:28.888Z,60.30
2022-08-05T01:08:40.070Z,60.40
2022-08-05T01:10:52.879Z,61.20
2022-08-05T01:13:27.385Z,60.40
2022-08-05T01:16:26.357Z,60.40
2022-08-05T01:19:01.681Z,60.40
2022-08-05T01:21:58.376Z,60.50
2022-08-05T01:24:49.323Z,60.60
2022-08-05T01:27:33.020Z,60.60
2022-08-05T01:30:05.610Z,60.60
2022-08-05T01:32:48.563Z,60.60
2022-08-05T01:35:52.081Z,60.80
2022-08-05T01:38:09.873Z,60.80
2022-08-05T01:40:55.454Z,60.80
2022-08-05T01:43:25.162Z,60.80
2022-08-05T01:45:56.999Z,61.00
2022-08-05T01:48:27.308Z,61.20
2022-08-05T01:50:57.998Z,61.10
2022-08-05T01:53:55.034Z,61.20
2022-08-05T01:58:29.709Z,61.20
2022-08-05T01:59:12.899Z,61.30
2022-08-05T02:01:44.769Z,61.40
2022-08-05T02:04:17.862Z,61.40
2022-08-05T02:06:46.375Z,61.60
2022-08-05T02:09:16.577Z,61.60
2022-08-05T02:11:54.512Z,61.80
2022-08-05T02:14:32.065Z,61.90
2022-08-05T02:17:08.957Z,61.90
2022-08-05T02:20:02.120Z,62.30
2022-08-05T02:22:34.449Z,62.50
2022-08-05T02:25:06.326Z,62.70
2022-08-05T02:27:59.036Z,62.80
2022-08-05T02:30:36.623Z,62.90
2022-08-05T02:33:09.052Z,63.00
2022-08-05T02:35:50.976Z,63.20
2022-08-05T02:38:35.374Z,63.30
2022-08-05T02:41:06.463Z,63.60
2022-08-05T02:44:02.291Z,63.70
2022-08-05T02:46:35.277Z,63.80
2022-08-05T02:49:07.186Z,64.00
2022-08-05T02:52:02.944Z,64.30
2022-08-05T02:54:35.814Z,64.20
2022-08-05T02:57:10.346Z,64.30
2022-08-05T02:59:57.651Z,64.40
2022-08-05T03:02:32.358Z,64.40
2022-08-05T03:05:03.304Z,64.70
2022-08-05T03:08:01.396Z,64.80
2022-08-05T03:10:24.857Z,64.80
2022-08-05T03:12:54.998Z,65.00
2022-08-05T03:15:24.296Z,65.00
2022-08-05T03:17:55.647Z,65.10
2022-08-05T03:20:26.460Z,65.20
2022-08-05T03:22:58.041Z,65.30
2022-08-05T03:25:32.442Z,65.50
2022-08-05T03:28:18.819Z,65.50
2022-08-05T03:30:50.884Z,65.60
2022-08-05T03:33:19.661Z,65.80
2022-08-05T03:35:50.373Z,65.90
2022-08-05T03:40:48.792Z,66.20
2022-08-05T03:44:09.570Z,66.20
2022-08-05T03:46:09.802Z,66.30
2022-08-05T03:48:38.717Z,66.40
2022-08-05T03:52:39.131Z,66.60
2022-08-05T03:56:01.121Z,67.40
2022-08-05T03:57:00.119Z,66.60
2022-08-05T03:59:47.516Z,66.70
2022-08-05T04:02:38.374Z,66.80
2022-08-05T04:05:10.408Z,66.70
2022-08-05T04:07:57.375Z,66.80
2022-08-05T04:10:32.164Z,66.80
2022-08-05T04:13:06.735Z,66.70
2022-08-05T04:15:36.131Z,66.80
2022-08-05T04:18:06.847Z,66.90
2022-08-05T04:20:36.231Z,66.90
2022-08-05T04:23:06.245Z,67.10
2022-08-05T04:25:57.805Z,66.90
2022-08-05T04:28:31.629Z,66.90
2022-08-05T04:31:01.578Z,66.90
2022-08-05T04:34:18.609Z,67.00
2022-08-05T04:36:46.304Z,66.90
2022-08-05T04:39:11.108Z,67.00
2022-08-05T04:41:41.431Z,66.90
2022-08-05T04:44:10.067Z,66.90
2022-08-05T04:46:39.289Z,66.90
2022-08-05T04:49:12.395Z,66.90
2022-08-05T04:51:43.987Z,66.90
2022-08-05T04:54:14.912Z,66.90
2022-08-05T04:56:43.615Z,66.90
2022-08-05T04:59:21.721Z,66.90
2022-08-05T05:02:08.263Z,66.90
2022-08-05T05:04:44.082Z,66.90
2022-08-05T05:07:17.144Z,66.90
2022-08-05T05:09:47.488Z,66.90
2022-08-05T05:12:15.910Z,66.90
2022-08-05T05:14:49.431Z,67.00
2022-08-05T05:17:23.758Z,67.00
2022-08-05T05:19:56.484Z,67.00
2022-08-05T05:22:26.557Z,67.00
2022-08-05T05:25:00.104Z,66.90
2022-08-05T05:27:41.791Z,67.00
2022-08-05T05:30:30.627Z,66.70
2022-08-05T05:33:08.879Z,66.50
2022-08-05T05:35:45.282Z,66.40
2022-08-05T05:38:14.190Z,66.30
2022-08-05T05:40:49.846Z,66.10
2022-08-05T05:43:22.406Z,66.10
2022-08-05T05:46:15.692Z,66.00
2022-08-05T05:48:45.949Z,65.90
2022-08-05T05:51:20.381Z,65.70
2022-08-05T05:53:57.960Z,65.30
2022-08-05T05:56:32.407Z,65.30
2022-08-05T05:59:05.060Z,65.30
2022-08-05T06:01:38.219Z,65.10
2022-08-05T06:04:12.182Z,65.00
2022-08-05T06:11:24.949Z,64.80
2022-08-05T06:18:07.752Z,64.20
2022-08-05T06:20:36.102Z,64.30
2022-08-05T06:23:04.437Z,64.10
2022-08-05T06:26:12.160Z,64.60
2022-08-05T06:28:22.057Z,63.50
2022-08-05T06:30:52.082Z,63.40
2022-08-05T06:33:33.367Z,63.40
2022-08-05T06:36:10.486Z,63.10
2022-08-05T06:38:38.874Z,62.90
2022-08-05T06:41:15.391Z,62.70
2022-08-05T06:43:57.392Z,62.70
2022-08-05T06:46:30.202Z,62.70
2022-08-05T06:49:01.715Z,62.70
2022-08-05T06:51:31.446Z,62.50
2022-08-05T06:54:02.276Z,62.20
2022-08-05T06:56:34.795Z,61.90
2022-08-05T06:59:08.326Z,61.80
2022-08-05T07:01:40.766Z,61.60
2022-08-05T07:04:14.072Z,61.40
2022-08-05T07:06:42.563Z,61.30
2022-08-05T07:09:10.904Z,61.20
2022-08-05T07:11:39.939Z,60.80
2022-08-05T07:14:29.284Z,60.70
2022-08-05T07:18:01.761Z,60.70
2022-08-05T07:22:42.776Z,60.20
2022-08-05T07:25:53.811Z,60.10
2022-08-05T07:28:07.286Z,60.00
2022-08-05T07:30:40.191Z,59.90
2022-08-05T07:33:16.102Z,59.70
2022-08-05T07:36:04.594Z,59.60
2022-08-05T07:38:43.086Z,59.50
2022-08-05T07:42:12.940Z,59.50
2022-08-05T07:44:18.583Z,58.30
2022-08-05T07:46:48.469Z,58.10
2022-08-05T07:49:18.474Z,58.10
2022-08-05T07:51:53.575Z,57.60
2022-08-05T07:54:30.866Z,57.40
2022-08-05T07:57:22.695Z,57.50
2022-08-05T07:59:50.686Z,57.40
2022-08-05T08:02:19.572Z,57.40
2022-08-05T08:04:55.609Z,57.20
2022-08-05T08:07:28.414Z,57.30
2022-08-05T08:10:04.378Z,56.80
2022-08-05T08:12:48.851Z,56.60
2022-08-05T08:16:33.538Z,56.40
2022-08-05T08:18:14.263Z,56.30
2022-08-05T08:21:02.179Z,55.60
2022-08-05T08:24:02.488Z,55.10
2022-08-05T08:26:26.976Z,55.20
2022-08-05T08:29:22.266Z,55.30
2022-08-05T08:31:48.348Z,55.30
2022-08-05T08:34:16.938Z,55.50
2022-08-05T08:36:54.763Z,55.50
2022-08-05T08:39:26.540Z,54.80
2022-08-05T08:41:58.750Z,53.60
2022-08-05T08:45:21.422Z,53.80
2022-08-05T08:52:01.753Z,53.40
2022-08-05T08:53:54.822Z,53.60
2022-08-05T08:56:26.981Z,53.30
2022-08-05T08:58:59.316Z,53.00
2022-08-05T09:01:29.550Z,53.00
2022-08-05T09:03:58.623Z,52.70
2022-08-05T09:06:29.572Z,52.40
2022-08-05T09:08:59.785Z,53.20
2022-08-05T09:11:53.444Z,52.30
2022-08-05T09:14:56.769Z,52.40
2022-08-05T09:17:09.522Z,52.10
2022-08-05T09:20:02.251Z,52.40
2022-08-05T09:23:18.967Z,52.30
2022-08-05T09:26:02.157Z,52.20
2022-08-05T09:28:35.070Z,51.40
2022-08-05T09:31:22.459Z,51.00
2022-08-05T09:33:56.692Z,51.20
2022-08-05T09:36:27.688Z,50.30
2022-08-05T09:39:18.514Z,50.30
2022-08-05T09:41:58.488Z,50.70
2022-08-05T09:44:50.424Z,50.70
2022-08-05T09:47:21.336Z,50.60
2022-08-05T09:50:00.951Z,50.00
2022-08-05T09:52:33.709Z,50.10
2022-08-05T09:55:06.334Z,49.40
2022-08-05T09:57:39.449Z,49.60
2022-08-05T10:00:13.041Z,49.70
2022-08-05T10:02:43.973Z,49.40
2022-08-05T10:05:14.774Z,49.50
2022-08-05T10:08:10.421Z,49.30
2022-08-05T10:10:40.830Z,49.50
2022-08-05T10:13:10.157Z,49.60
2022-08-05T10:15:41.474Z,49.50
2022-08-05T10:18:16.777Z,49.00
2022-08-05T10:20:48.432Z,48.80
2022-08-05T10:23:34.126Z,48.90
2022-08-05T10:26:13.975Z,48.60
2022-08-05T10:28:44.901Z,48.60
2022-08-05T10:32:52.562Z,48.50
2022-08-05T10:34:07.882Z,47.90
2022-08-05T10:36:38.427Z,47.80
2022-08-05T10:39:15.287Z,47.80
2022-08-05T10:42:01.340Z,48.00
2022-08-05T10:44:33.108Z,47.70
2022-08-05T10:47:26.817Z,47.70
2022-08-05T10:50:32.838Z,48.00
2022-08-05T10:52:58.472Z,48.10
2022-08-05T10:55:28.409Z,47.90
2022-08-05T10:58:11.623Z,48.00
2022-08-05T11:00:48.530Z,48.10
2022-08-05T11:03:27.119Z,47.90
2022-08-05T11:06:15.813Z,47.10
2022-08-05T11:09:24.397Z,47.30
2022-08-05T11:12:50.860Z,47.50
2022-08-05T11:16:00.779Z,47.30
2022-08-05T11:18:29.949Z,48.00
2022-08-05T11:20:59.221Z,46.90
2022-08-05T11:23:33.378Z,47.00
2022-08-05T11:26:29.248Z,46.80
2022-08-05T11:29:13.089Z,47.10
2022-08-05T11:32:14.718Z,46.80
2022-08-05T11:34:47.614Z,46.90
2022-08-05T11:38:28.066Z,46.90
2022-08-05T11:41:34.734Z,46.60
2022-08-05T11:44:05.628Z,46.60
2022-08-05T11:47:10.196Z,46.80
2022-08-05T11:49:27.054Z,46.50
2022-08-05T11:51:57.922Z,46.80
2022-08-05T11:54:33.400Z,46.30
2022-08-05T11:57:08.520Z,46.40
2022-08-05T11:59:52.553Z,45.90
2022-08-05T12:02:30.402Z,46.20
2022-08-05T12:05:01.447Z,46.20
2022-08-05T12:08:08.420Z,46.20
2022-08-05T12:10:38.621Z,46.20
2022-08-05T12:13:16.514Z,46.00
2022-08-05T12:15:49.698Z,46.00
2022-08-05T12:18:32.466Z,45.60
2022-08-05T12:21:11.789Z,45.50
2022-08-05T12:23:47.739Z,45.20
2022-08-05T12:26:17.913Z,45.30
2022-08-05T12:28:47.218Z,45.50
2022-08-05T12:31:23.198Z,45.50
2022-08-05T12:34:01.528Z,44.70
2022-08-05T12:36:32.363Z,45.00
2022-08-05T12:39:02.993Z,45.30
2022-08-05T12:41:36.281Z,45.50
2022-08-05T12:44:14.611Z,45.10
2022-08-05T12:47:02.708Z,45.10
2022-08-05T12:50:05.336Z,44.70
2022-08-05T12:52:37.773Z,45.00
2022-08-05T12:55:22.689Z,44.70
2022-08-05T12:58:51.066Z,44.90
2022-08-05T13:02:00.257Z,44.90
2022-08-05T13:03:39.006Z,45.00
2022-08-05T13:06:16.083Z,45.00
2022-08-05T13:08:52.266Z,44.80
2022-08-05T13:12:00.019Z,44.90
2022-08-05T13:14:35.900Z,44.90
2022-08-05T13:17:10.571Z,44.70
2022-08-05T13:19:52.120Z,44.60
2022-08-05T13:22:29.201Z,44.70
2022-08-05T13:25:00.686Z,44.70
2022-08-05T13:27:38.534Z,44.40
2022-08-05T13:30:34.285Z,44.40
2022-08-05T13:33:01.088Z,44.40
2022-08-05T13:35:43.179Z,44.60
2022-08-05T13:38:28.034Z,44.60
2022-08-05T13:41:05.171Z,44.40
2022-08-05T13:43:43.603Z,44.30
2022-08-05T13:46:16.324Z,44.20
2022-08-05T13:49:01.032Z,44.40
2022-08-05T13:51:40.167Z,44.20
2022-08-05T13:54:12.042Z,44.10
2022-08-05T13:56:44.885Z,44.20
2022-08-05T13:59:23.827Z,44.20
2022-08-05T14:01:57.573Z,44.90
2022-08-05T14:04:51.058Z,43.90
2022-08-05T14:07:25.411Z,43.90
2022-08-05T14:10:18.499Z,43.90
2022-08-05T14:12:48.668Z,44.00
2022-08-05T14:16:07.070Z,43.90
2022-08-05T14:18:15.262Z,43.90
2022-08-05T14:20:48.160Z,43.80
2022-08-05T14:23:25.145Z,43.80
2022-08-05T14:25:57.889Z,43.80
2022-08-05T14:28:28.196Z,43.70
2022-08-05T14:30:58.920Z,43.30
2022-08-05T14:33:27.448Z,43.20
2022-08-05T14:36:15.822Z,43.30
2022-08-05T14:38:50.226Z,43.40
2022-08-05T14:41:19.396Z,43.10
2022-08-05T14:44:00.011Z,42.80
2022-08-05T14:46:35.616Z,42.60
2022-08-05T14:49:07.231Z,42.80
2022-08-05T14:51:37.404Z,42.70
2022-08-05T14:54:27.724Z,42.60
2022-08-05T14:56:55.197Z,42.60
2022-08-05T14:59:23.809Z,42.60
2022-08-05T15:01:53.989Z,42.70
2022-08-05T15:04:23.278Z,42.80
2022-08-05T15:06:55.849Z,42.80
2022-08-05T15:09:52.026Z,42.70
2022-08-05T15:12:16.574Z,42.60
2022-08-05T15:14:50.345Z,42.60
2022-08-05T15:17:46.160Z,42.70
2022-08-05T15:20:17.235Z,42.90
2022-08-05T15:22:54.386Z,42.90
2022-08-05T15:25:41.032Z,43.10
2022-08-05T15:28:13.419Z,43.00
2022-08-05T15:30:43.799Z,42.60
2022-08-05T15:33:56.545Z,42.50
2022-08-05T15:36:05.124Z,42.10
2022-08-05T15:38:40.888Z,42.20
2022-08-05T15:41:22.859Z,41.90
2022-08-05T15:43:54.863Z,41.90
2022-08-05T15:46:24.749Z,41.90
2022-08-05T15:49:01.001Z,42.10
2022-08-05T15:52:04.179Z,41.90
2022-08-05T15:54:19.213Z,41.90
2022-08-05T15:56:47.751Z,41.80
2022-08-05T15:59:21.934Z,41.90
2022-08-05T16:01:53.243Z,42.10
2022-08-05T16:04:25.425Z,42.10
2022-08-05T16:06:55.718Z,42.30
2022-08-05T16:09:24.894Z,42.40
2022-08-05T16:11:53.925Z,42.40
2022-08-05T16:14:22.816Z,42.50
2022-08-05T16:16:51.573Z,42.60
2022-08-05T16:20:03.254Z,42.80
2022-08-05T16:22:10.471Z,43.00
2022-08-05T16:24:51.308Z,43.10
2022-08-05T16:27:46.764Z,43.20
2022-08-05T16:30:23.336Z,43.30
2022-08-05T16:32:58.627Z,43.50
2022-08-05T16:35:32.488Z,43.70
2022-08-05T16:38:24.326Z,43.80
2022-08-05T16:41:00.577Z,44.00
2022-08-05T16:43:31.503Z,44.30
2022-08-05T16:46:07.518Z,44.40
2022-08-05T16:48:49.444Z,44.60
2022-08-05T16:51:17.879Z,44.80
2022-08-05T16:54:06.270Z,44.90
2022-08-05T16:56:37.064Z,45.10
2022-08-05T16:59:10.363Z,45.30
2022-08-05T17:01:53.802Z,46.00
2022-08-05T17:04:26.398Z,45.50
2022-08-05T17:06:56.941Z,45.60
2022-08-05T17:09:30.387Z,45.80
2022-08-05T17:12:08.079Z,46.00
2022-08-05T17:14:40.292Z,46.10
2022-08-05T17:17:15.052Z,46.30
2022-08-05T17:19:46.159Z,46.30
2022-08-05T17:22:24.832Z,46.50
2022-08-05T17:24:57.795Z,46.70
2022-08-05T17:27:34.270Z,47.00
2022-08-05T17:30:03.287Z,47.30
2022-08-05T17:32:33.850Z,47.30
2022-08-05T17:35:04.109Z,47.40
2022-08-05T17:37:40.126Z,47.60
2022-08-05T17:40:14.493Z,47.90
2022-08-05T17:42:50.752Z,48.10
2022-08-05T17:45:21.917Z,48.30
2022-08-05T17:47:54.631Z,48.40
2022-08-05T17:50:28.488Z,48.40
2022-08-05T17:53:00.199Z,48.50
2022-08-05T17:55:37.548Z,48.60
2022-08-05T17:58:09.691Z,48.90
2022-08-05T18:00:40.866Z,48.90
2022-08-05T18:03:24.146Z,48.90
2022-08-05T18:06:06.074Z,49.00
2022-08-05T18:08:44.460Z,49.10
2022-08-05T18:11:24.793Z,49.20
2022-08-05T18:14:04.400Z,49.30
2022-08-05T18:16:49.609Z,49.20
2022-08-05T18:19:22.806Z,49.30
2022-08-05T18:22:08.541Z,49.50
2022-08-05T18:24:40.218Z,49.80
2022-08-05T18:27:12.699Z,49.80
2022-08-05T18:29:53.593Z,49.90
2022-08-05T18:32:28.457Z,49.90
2022-08-05T18:34:59.045Z,50.10
2022-08-05T18:37:33.963Z,50.10
2022-08-05T18:41:50.581Z,50.10
2022-08-05T18:42:59.902Z,50.30
2022-08-05T18:45:41.028Z,50.40
2022-08-05T18:48:11.333Z,50.40
2022-08-05T18:52:02.971Z,50.50
2022-08-05T18:53:51.954Z,50.50
2022-08-05T18:56:21.528Z,50.50
2022-08-05T18:58:54.716Z,50.60
2022-08-05T19:01:47.798Z,50.70
2022-08-05T19:04:24.062Z,50.70
2022-08-05T19:06:53.527Z,50.80
2022-08-05T19:09:22.282Z,50.80
2022-08-05T19:12:00.781Z,50.90
2022-08-05T19:14:44.808Z,51.00
2022-08-05T19:17:20.568Z,51.20
2022-08-05T19:19:50.573Z,51.20
2022-08-05T19:22:27.424Z,51.20
2022-08-05T19:25:00.805Z,51.30
2022-08-05T19:27:31.093Z,51.50
2022-08-05T19:30:03.001Z,51.60
2022-08-05T19:32:32.462Z,51.70
2022-08-05T19:35:06.429Z,51.80
2022-08-05T19:38:04.592Z,51.80
2022-08-05T19:40:24.324Z,51.80
2022-08-05T19:43:04.988Z,51.90
2022-08-05T19:45:36.974Z,52.00
2022-08-05T19:48:06.518Z,52.20
2022-08-05T19:50:36.732Z,52.20
2022-08-05T19:53:10.539Z,52.30
2022-08-05T19:56:15.522Z,52.40
2022-08-05T19:58:29.970Z,52.50
2022-08-05T20:01:00.331Z,52.50
2022-08-05T20:03:40.501Z,52.60
2022-08-05T20:06:15.659Z,52.70
2022-08-05T20:08:59.848Z,52.80
2022-08-05T20:11:34.539Z,52.90
2022-08-05T20:14:12.728Z,53.00
2022-08-05T20:16:44.196Z,53.10
2022-08-05T20:19:12.653Z,53.20
2022-08-05T20:21:43.450Z,53.20
2022-08-05T20:24:14.440Z,53.40
2022-08-05T20:26:44.577Z,53.50
2022-08-05T20:29:26.833Z,53.70
2022-08-05T20:31:58.290Z,53.80
2022-08-05T20:34:28.126Z,54.00
2022-08-05T20:36:56.565Z,54.10
2022-08-05T20:39:25.085Z,54.40
2022-08-05T20:42:04.557Z,54.50
2022-08-05T20:44:37.729Z,54.70
2022-08-05T20:47:08.368Z,54.90
2022-08-05T20:49:39.927Z,55.20
2022-08-05T20:52:10.500Z,55.30
2022-08-05T20:54:59.591Z,55.30
2022-08-05T20:57:42.763Z,55.50
2022-08-05T21:00:41.502Z,55.60
2022-08-05T21:03:08.001Z,55.70
2022-08-05T21:05:53.969Z,55.80
2022-08-05T21:08:28.106Z,55.90
2022-08-05T21:11:10.249Z,55.80
2022-08-05T21:13:55.823Z,56.00
2022-08-05T21:16:29.641Z,56.00
2022-08-05T21:19:01.383Z,56.10
2022-08-05T21:21:39.095Z,56.10
2022-08-05T21:24:12.511Z,56.10
2022-08-05T21:26:44.054Z,56.10
2022-08-05T21:29:16.834Z,56.10
2022-08-05T21:31:45.365Z,56.20
2022-08-05T21:34:18.940Z,56.90
2022-08-05T21:36:49.333Z,56.40
2022-08-05T21:39:26.535Z,56.50
2022-08-05T21:42:02.160Z,56.50
2022-08-05T21:44:31.770Z,56.50
2022-08-05T21:47:00.929Z,56.50
2022-08-05T21:49:56.815Z,56.50
2022-08-05T21:52:27.829Z,56.70
2022-08-05T21:54:57.596Z,56.70
2022-08-05T21:57:34.984Z,56.70
2022-08-05T22:00:06.092Z,56.70
2022-08-05T22:02:35.764Z,56.80
2022-08-05T22:05:09.026Z,57.10
2022-08-05T22:07:39.741Z,57.10
2022-08-05T22:10:26.976Z,57.10
2022-08-05T22:12:57.115Z,57.30
2022-08-05T22:16:04.680Z,57.40
2022-08-05T22:18:15.294Z,57.50
2022-08-05T22:20:51.642Z,57.60
2022-08-05T22:24:00.865Z,57.60
2022-08-05T22:26:40.823Z,57.70
2022-08-05T22:29:09.304Z,57.70
2022-08-05T22:31:44.854Z,57.70
2022-08-05T22:34:25.585Z,57.70
2022-08-05T22:36:59.013Z,57.60
2022-08-05T22:39:33.107Z,57.70
2022-08-05T22:42:09.720Z,57.70
2022-08-05T22:44:42.638Z,57.80
2022-08-05T22:47:29.441Z,58.00
2022-08-05T22:50:17.985Z,57.90
2022-08-05T22:52:49.363Z,58.00
2022-08-05T22:55:21.112Z,58.00
2022-08-05T22:57:50.454Z,58.00
2022-08-05T23:00:20.895Z,58.10
2022-08-05T23:02:50.561Z,58.20
2022-08-05T23:05:22.058Z,58.30
2022-08-05T23:07:52.441Z,58.30
2022-08-05T23:10:23.948Z,58.40
2022-08-05T23:12:54.953Z,58.40
2022-08-05T23:15:27.080Z,58.50
2022-08-05T23:18:01.636Z,58.60
2022-08-05T23:20:32.503Z,58.60
2022-08-05T23:23:03.502Z,58.60
2022-08-05T23:25:53.573Z,58.80
2022-08-05T23:28:22.990Z,58.80
2022-08-05T23:30:53.623Z,58.90
2022-08-05T23:34:02.730Z,58.90
2022-08-05T23:36:13.560Z,58.90
2022-08-05T23:38:43.973Z,59.00
2022-08-05T23:41:13.127Z,59.10
2022-08-05T23:44:05.250Z,59.20
2022-08-05T23:46:30.383Z,59.20
2022-08-05T23:49:01.958Z,59.30
2022-08-05T23:52:02.777Z,59.40
2022-08-05T23:54:38.505Z,59.50
2022-08-05T23:57:08.526Z,59.70
